sensor_id;sensor_type;location;lat;lon;timestamp;P1;durP1;ratioP1;P2;durP2;ratioP2
17812;SDS011;9030;50.792;8.320;2022-07-23T00:00:04;21.83;;;17.10;;
17812;SDS011;9030;50.792;8.320;2022-07-23T00:02:32;19.55;;;16.63;;
17812;SDS011;9030;50.792;8.320;2022-07-23T00:04:59;18.48;;;16.42;;
17812;SDS011;9030;50.792;8.320;2022-07-23T00:07:26;18.70;;;16.77;;
17812;SDS011;9030;50.792;8.320;2022-07-23T00:09:53;21.80;;;18.95;;
17812;SDS011;9030;50.792;8.320;2022-07-23T00:12:21;23.95;;;20.45;;
17812;SDS011;9030;50.792;8.320;2022-07-23T00:14:48;22.35;;;20.05;;
17812;SDS011;9030;50.792;8.320;2022-07-23T00:17:14;20.00;;;18.00;;
17812;SDS011;9030;50.792;8.320;2022-07-23T00:19:41;22.27;;;19.50;;
17812;SDS011;9030;50.792;8.320;2022-07-23T00:22:08;25.20;;;18.50;;
17812;SDS011;9030;50.792;8.320;2022-07-23T00:24:35;19.90;;;17.70;;
17812;SDS011;9030;50.792;8.320;2022-07-23T00:27:01;20.52;;;17.05;;
17812;SDS011;9030;50.792;8.320;2022-07-23T00:29:30;19.27;;;17.23;;
17812;SDS011;9030;50.792;8.320;2022-07-23T00:31:56;18.50;;;16.35;;
17812;SDS011;9030;50.792;8.320;2022-07-23T00:34:23;20.30;;;17.85;;
17812;SDS011;9030;50.792;8.320;2022-07-23T00:36:50;18.17;;;15.95;;
17812;SDS011;9030;50.792;8.320;2022-07-23T00:39:18;21.17;;;17.80;;
17812;SDS011;9030;50.792;8.320;2022-07-23T00:41:46;20.60;;;16.75;;
17812;SDS011;9030;50.792;8.320;2022-07-23T00:44:19;17.85;;;16.00;;
17812;SDS011;9030;50.792;8.320;2022-07-23T00:46:49;19.85;;;17.75;;
17812;SDS011;9030;50.792;8.320;2022-07-23T00:49:19;18.23;;;16.27;;
17812;SDS011;9030;50.792;8.320;2022-07-23T00:51:46;20.08;;;17.60;;
17812;SDS011;9030;50.792;8.320;2022-07-23T00:54:13;20.90;;;18.60;;
17812;SDS011;9030;50.792;8.320;2022-07-23T00:56:41;19.33;;;17.27;;
17812;SDS011;9030;50.792;8.320;2022-07-23T00:59:08;22.52;;;20.10;;
17812;SDS011;9030;50.792;8.320;2022-07-23T01:01:35;19.80;;;17.70;;
17812;SDS011;9030;50.792;8.320;2022-07-23T01:04:03;20.52;;;17.15;;
17812;SDS011;9030;50.792;8.320;2022-07-23T01:06:31;19.73;;;16.10;;
17812;SDS011;9030;50.792;8.320;2022-07-23T01:09:02;18.98;;;16.23;;
17812;SDS011;9030;50.792;8.320;2022-07-23T01:11:29;18.08;;;16.05;;
17812;SDS011;9030;50.792;8.320;2022-07-23T01:13:57;21.83;;;18.13;;
17812;SDS011;9030;50.792;8.320;2022-07-23T01:16:24;22.27;;;19.45;;
17812;SDS011;9030;50.792;8.320;2022-07-23T01:18:51;21.98;;;19.13;;
17812;SDS011;9030;50.792;8.320;2022-07-23T01:21:19;22.95;;;20.17;;
17812;SDS011;9030;50.792;8.320;2022-07-23T01:23:47;21.25;;;18.25;;
17812;SDS011;9030;50.792;8.320;2022-07-23T01:26:14;20.75;;;18.50;;
17812;SDS011;9030;50.792;8.320;2022-07-23T01:28:42;22.38;;;19.98;;
17812;SDS011;9030;50.792;8.320;2022-07-23T01:31:09;23.13;;;20.60;;
17812;SDS011;9030;50.792;8.320;2022-07-23T01:33:35;22.23;;;18.77;;
17812;SDS011;9030;50.792;8.320;2022-07-23T01:36:02;20.88;;;18.67;;
17812;SDS011;9030;50.792;8.320;2022-07-23T01:38:29;24.33;;;19.40;;
17812;SDS011;9030;50.792;8.320;2022-07-23T01:40:57;20.48;;;18.42;;
17812;SDS011;9030;50.792;8.320;2022-07-23T01:43:24;21.80;;;19.52;;
17812;SDS011;9030;50.792;8.320;2022-07-23T01:45:51;23.45;;;19.45;;
17812;SDS011;9030;50.792;8.320;2022-07-23T01:48:17;20.38;;;18.27;;
17812;SDS011;9030;50.792;8.320;2022-07-23T01:50:45;23.10;;;20.70;;
17812;SDS011;9030;50.792;8.320;2022-07-23T01:53:12;24.05;;;21.15;;
17812;SDS011;9030;50.792;8.320;2022-07-23T01:55:39;23.35;;;21.00;;
17812;SDS011;9030;50.792;8.320;2022-07-23T01:58:07;20.50;;;18.33;;
17812;SDS011;9030;50.792;8.320;2022-07-23T02:00:34;23.13;;;20.88;;
17812;SDS011;9030;50.792;8.320;2022-07-23T02:03:01;28.30;;;18.40;;
17812;SDS011;9030;50.792;8.320;2022-07-23T02:05:28;21.75;;;19.55;;
17812;SDS011;9030;50.792;8.320;2022-07-23T02:07:55;24.30;;;21.30;;
17812;SDS011;9030;50.792;8.320;2022-07-23T02:10:21;23.42;;;21.05;;
17812;SDS011;9030;50.792;8.320;2022-07-23T02:12:48;23.20;;;20.42;;
17812;SDS011;9030;50.792;8.320;2022-07-23T02:15:16;23.50;;;19.23;;
17812;SDS011;9030;50.792;8.320;2022-07-23T02:17:43;24.33;;;21.73;;
17812;SDS011;9030;50.792;8.320;2022-07-23T02:20:10;24.35;;;22.00;;
17812;SDS011;9030;50.792;8.320;2022-07-23T02:22:37;24.52;;;22.00;;
17812;SDS011;9030;50.792;8.320;2022-07-23T02:25:05;24.30;;;21.83;;
17812;SDS011;9030;50.792;8.320;2022-07-23T02:27:33;26.65;;;20.80;;
17812;SDS011;9030;50.792;8.320;2022-07-23T02:30:00;21.02;;;18.58;;
17812;SDS011;9030;50.792;8.320;2022-07-23T02:32:29;23.52;;;21.02;;
17812;SDS011;9030;50.792;8.320;2022-07-23T02:34:56;21.98;;;19.67;;
17812;SDS011;9030;50.792;8.320;2022-07-23T02:37:23;23.45;;;20.92;;
17812;SDS011;9030;50.792;8.320;2022-07-23T02:39:49;23.63;;;21.20;;
17812;SDS011;9030;50.792;8.320;2022-07-23T02:42:16;25.35;;;22.77;;
17812;SDS011;9030;50.792;8.320;2022-07-23T02:44:43;24.27;;;22.00;;
17812;SDS011;9030;50.792;8.320;2022-07-23T02:47:10;30.27;;;21.23;;
17812;SDS011;9030;50.792;8.320;2022-07-23T02:49:38;22.30;;;18.42;;
17812;SDS011;9030;50.792;8.320;2022-07-23T02:52:05;22.88;;;20.63;;
17812;SDS011;9030;50.792;8.320;2022-07-23T02:54:31;21.83;;;19.63;;
17812;SDS011;9030;50.792;8.320;2022-07-23T02:56:58;23.08;;;20.40;;
17812;SDS011;9030;50.792;8.320;2022-07-23T02:59:25;21.50;;;18.35;;
17812;SDS011;9030;50.792;8.320;2022-07-23T03:01:51;21.10;;;19.00;;
17812;SDS011;9030;50.792;8.320;2022-07-23T03:04:18;25.85;;;20.58;;
17812;SDS011;9030;50.792;8.320;2022-07-23T03:06:46;25.20;;;18.50;;
17812;SDS011;9030;50.792;8.320;2022-07-23T03:09:13;25.95;;;22.10;;
17812;SDS011;9030;50.792;8.320;2022-07-23T03:11:40;21.38;;;19.08;;
17812;SDS011;9030;50.792;8.320;2022-07-23T03:14:06;19.80;;;17.77;;
17812;SDS011;9030;50.792;8.320;2022-07-23T03:16:33;18.45;;;16.27;;
17812;SDS011;9030;50.792;8.320;2022-07-23T03:19:00;18.40;;;15.82;;
17812;SDS011;9030;50.792;8.320;2022-07-23T03:21:27;20.77;;;17.02;;
17812;SDS011;9030;50.792;8.320;2022-07-23T03:23:55;20.10;;;15.65;;
17812;SDS011;9030;50.792;8.320;2022-07-23T03:26:21;17.25;;;13.40;;
17812;SDS011;9030;50.792;8.320;2022-07-23T03:28:50;17.67;;;15.88;;
17812;SDS011;9030;50.792;8.320;2022-07-23T03:31:17;19.60;;;17.48;;
17812;SDS011;9030;50.792;8.320;2022-07-23T03:33:44;19.00;;;14.52;;
17812;SDS011;9030;50.792;8.320;2022-07-23T03:36:10;18.00;;;14.13;;
17812;SDS011;9030;50.792;8.320;2022-07-23T03:38:37;23.08;;;16.70;;
17812;SDS011;9030;50.792;8.320;2022-07-23T03:41:05;17.40;;;14.00;;
17812;SDS011;9030;50.792;8.320;2022-07-23T03:43:32;16.30;;;14.30;;
17812;SDS011;9030;50.792;8.320;2022-07-23T03:45:59;15.57;;;13.98;;
17812;SDS011;9030;50.792;8.320;2022-07-23T03:48:26;17.42;;;13.75;;
17812;SDS011;9030;50.792;8.320;2022-07-23T03:50:53;18.25;;;13.40;;
17812;SDS011;9030;50.792;8.320;2022-07-23T03:53:19;14.57;;;12.77;;
17812;SDS011;9030;50.792;8.320;2022-07-23T03:55:46;17.42;;;12.73;;
17812;SDS011;9030;50.792;8.320;2022-07-23T03:58:14;16.10;;;13.57;;
17812;SDS011;9030;50.792;8.320;2022-07-23T04:00:41;17.35;;;14.23;;
17812;SDS011;9030;50.792;8.320;2022-07-23T04:03:08;17.40;;;12.75;;
17812;SDS011;9030;50.792;8.320;2022-07-23T04:05:34;16.95;;;13.80;;
17812;SDS011;9030;50.792;8.320;2022-07-23T04:08:01;15.20;;;12.32;;
17812;SDS011;9030;50.792;8.320;2022-07-23T04:10:28;15.95;;;13.30;;
17812;SDS011;9030;50.792;8.320;2022-07-23T04:12:55;14.43;;;10.77;;
17812;SDS011;9030;50.792;8.320;2022-07-23T04:15:23;15.15;;;12.52;;
17812;SDS011;9030;50.792;8.320;2022-07-23T04:17:49;17.85;;;13.00;;
17812;SDS011;9030;50.792;8.320;2022-07-23T04:20:16;18.73;;;11.77;;
17812;SDS011;9030;50.792;8.320;2022-07-23T04:22:43;16.13;;;11.63;;
17812;SDS011;9030;50.792;8.320;2022-07-23T04:25:09;13.95;;;9.63;;
17812;SDS011;9030;50.792;8.320;2022-07-23T04:27:36;16.20;;;12.95;;
17812;SDS011;9030;50.792;8.320;2022-07-23T04:30:03;14.52;;;11.00;;
17812;SDS011;9030;50.792;8.320;2022-07-23T04:32:32;14.48;;;10.32;;
17812;SDS011;9030;50.792;8.320;2022-07-23T04:34:59;16.63;;;11.95;;
17812;SDS011;9030;50.792;8.320;2022-07-23T04:37:25;16.08;;;10.43;;
17812;SDS011;9030;50.792;8.320;2022-07-23T04:39:52;15.02;;;8.98;;
17812;SDS011;9030;50.792;8.320;2022-07-23T04:42:19;12.55;;;9.38;;
17812;SDS011;9030;50.792;8.320;2022-07-23T04:44:45;20.65;;;11.70;;
17812;SDS011;9030;50.792;8.320;2022-07-23T04:47:12;12.68;;;9.30;;
17812;SDS011;9030;50.792;8.320;2022-07-23T04:49:40;14.52;;;10.40;;
17812;SDS011;9030;50.792;8.320;2022-07-23T04:52:07;13.93;;;9.27;;
17812;SDS011;9030;50.792;8.320;2022-07-23T04:54:33;14.00;;;9.52;;
17812;SDS011;9030;50.792;8.320;2022-07-23T04:57:00;12.77;;;9.45;;
17812;SDS011;9030;50.792;8.320;2022-07-23T04:59:27;12.85;;;8.77;;
17812;SDS011;9030;50.792;8.320;2022-07-23T05:01:53;13.90;;;10.35;;
17812;SDS011;9030;50.792;8.320;2022-07-23T05:04:20;12.30;;;8.32;;
17812;SDS011;9030;50.792;8.320;2022-07-23T05:06:48;11.95;;;8.02;;
17812;SDS011;9030;50.792;8.320;2022-07-23T05:09:15;12.50;;;9.43;;
17812;SDS011;9030;50.792;8.320;2022-07-23T05:11:41;12.77;;;9.60;;
17812;SDS011;9030;50.792;8.320;2022-07-23T05:14:08;15.77;;;8.15;;
17812;SDS011;9030;50.792;8.320;2022-07-23T05:16:37;12.68;;;8.27;;
17812;SDS011;9030;50.792;8.320;2022-07-23T05:19:04;13.45;;;9.27;;
17812;SDS011;9030;50.792;8.320;2022-07-23T05:21:30;13.40;;;10.50;;
17812;SDS011;9030;50.792;8.320;2022-07-23T05:23:58;11.73;;;8.98;;
17812;SDS011;9030;50.792;8.320;2022-07-23T05:26:25;12.73;;;8.75;;
17812;SDS011;9030;50.792;8.320;2022-07-23T05:28:52;12.90;;;9.15;;
17812;SDS011;9030;50.792;8.320;2022-07-23T05:31:19;12.15;;;8.73;;
17812;SDS011;9030;50.792;8.320;2022-07-23T05:33:45;12.02;;;8.82;;
17812;SDS011;9030;50.792;8.320;2022-07-23T05:36:12;19.42;;;9.23;;
17812;SDS011;9030;50.792;8.320;2022-07-23T05:38:39;15.35;;;8.90;;
17812;SDS011;9030;50.792;8.320;2022-07-23T05:41:07;13.15;;;9.57;;
17812;SDS011;9030;50.792;8.320;2022-07-23T05:43:33;14.00;;;9.75;;
17812;SDS011;9030;50.792;8.320;2022-07-23T05:46:00;12.75;;;7.05;;
17812;SDS011;9030;50.792;8.320;2022-07-23T05:48:27;10.80;;;7.13;;
17812;SDS011;9030;50.792;8.320;2022-07-23T05:50:54;12.18;;;7.03;;
17812;SDS011;9030;50.792;8.320;2022-07-23T05:53:20;13.65;;;8.25;;
17812;SDS011;9030;50.792;8.320;2022-07-23T05:55:47;14.43;;;7.15;;
17812;SDS011;9030;50.792;8.320;2022-07-23T05:58:15;13.40;;;8.57;;
17812;SDS011;9030;50.792;8.320;2022-07-23T06:00:42;14.93;;;9.68;;
17812;SDS011;9030;50.792;8.320;2022-07-23T06:03:08;14.27;;;9.05;;
17812;SDS011;9030;50.792;8.320;2022-07-23T06:05:35;13.05;;;9.55;;
17812;SDS011;9030;50.792;8.320;2022-07-23T06:08:02;11.65;;;9.57;;
17812;SDS011;9030;50.792;8.320;2022-07-23T06:10:29;14.23;;;9.18;;
17812;SDS011;9030;50.792;8.320;2022-07-23T06:12:56;12.85;;;8.65;;
17812;SDS011;9030;50.792;8.320;2022-07-23T06:15:24;11.80;;;8.77;;
17812;SDS011;9030;50.792;8.320;2022-07-23T06:17:51;13.75;;;8.82;;
17812;SDS011;9030;50.792;8.320;2022-07-23T06:20:18;15.45;;;9.02;;
17812;SDS011;9030;50.792;8.320;2022-07-23T06:22:44;17.73;;;9.63;;
17812;SDS011;9030;50.792;8.320;2022-07-23T06:25:11;12.68;;;8.55;;
17812;SDS011;9030;50.792;8.320;2022-07-23T06:27:38;15.02;;;9.05;;
17812;SDS011;9030;50.792;8.320;2022-07-23T06:30:05;11.48;;;7.22;;
17812;SDS011;9030;50.792;8.320;2022-07-23T06:32:34;17.02;;;8.38;;
17812;SDS011;9030;50.792;8.320;2022-07-23T06:35:01;12.43;;;7.90;;
17812;SDS011;9030;50.792;8.320;2022-07-23T06:37:28;12.63;;;8.07;;
17812;SDS011;9030;50.792;8.320;2022-07-23T06:39:54;13.10;;;8.82;;
17812;SDS011;9030;50.792;8.320;2022-07-23T06:42:21;13.15;;;8.77;;
17812;SDS011;9030;50.792;8.320;2022-07-23T06:44:48;11.25;;;7.95;;
17812;SDS011;9030;50.792;8.320;2022-07-23T06:47:15;12.82;;;8.88;;
17812;SDS011;9030;50.792;8.320;2022-07-23T06:49:43;11.13;;;7.80;;
17812;SDS011;9030;50.792;8.320;2022-07-23T06:52:09;11.35;;;7.97;;
17812;SDS011;9030;50.792;8.320;2022-07-23T06:54:36;13.23;;;9.23;;
17812;SDS011;9030;50.792;8.320;2022-07-23T06:57:03;9.95;;;6.38;;
17812;SDS011;9030;50.792;8.320;2022-07-23T06:59:30;12.57;;;8.27;;
17812;SDS011;9030;50.792;8.320;2022-07-23T07:01:56;13.48;;;8.38;;
17812;SDS011;9030;50.792;8.320;2022-07-23T07:04:23;10.82;;;8.00;;
17812;SDS011;9030;50.792;8.320;2022-07-23T07:06:51;8.50;;;5.88;;
17812;SDS011;9030;50.792;8.320;2022-07-23T07:09:18;11.73;;;7.85;;
17812;SDS011;9030;50.792;8.320;2022-07-23T07:11:45;11.82;;;7.57;;
17812;SDS011;9030;50.792;8.320;2022-07-23T07:14:11;10.95;;;7.93;;
17812;SDS011;9030;50.792;8.320;2022-07-23T07:16:38;10.50;;;7.15;;
17812;SDS011;9030;50.792;8.320;2022-07-23T07:19:05;12.95;;;8.60;;
17812;SDS011;9030;50.792;8.320;2022-07-23T07:21:32;13.15;;;9.60;;
17812;SDS011;9030;50.792;8.320;2022-07-23T07:24:00;10.90;;;7.53;;
17812;SDS011;9030;50.792;8.320;2022-07-23T07:26:27;10.90;;;8.38;;
17812;SDS011;9030;50.792;8.320;2022-07-23T07:28:54;12.38;;;8.65;;
17812;SDS011;9030;50.792;8.320;2022-07-23T07:31:21;10.85;;;7.20;;
17812;SDS011;9030;50.792;8.320;2022-07-23T07:33:48;11.25;;;6.95;;
17812;SDS011;9030;50.792;8.320;2022-07-23T07:36:14;11.98;;;7.88;;
17812;SDS011;9030;50.792;8.320;2022-07-23T07:38:41;16.55;;;7.95;;
17812;SDS011;9030;50.792;8.320;2022-07-23T07:41:09;14.07;;;8.13;;
17812;SDS011;9030;50.792;8.320;2022-07-23T07:43:37;9.30;;;6.85;;
17812;SDS011;9030;50.792;8.320;2022-07-23T07:46:04;11.38;;;7.53;;
17812;SDS011;9030;50.792;8.320;2022-07-23T07:48:34;10.98;;;7.38;;
17812;SDS011;9030;50.792;8.320;2022-07-23T07:51:01;10.52;;;7.15;;
17812;SDS011;9030;50.792;8.320;2022-07-23T07:53:28;11.70;;;7.30;;
17812;SDS011;9030;50.792;8.320;2022-07-23T07:55:55;11.57;;;8.63;;
17812;SDS011;9030;50.792;8.320;2022-07-23T07:58:23;11.60;;;7.50;;
17812;SDS011;9030;50.792;8.320;2022-07-23T08:00:50;10.65;;;7.78;;
17812;SDS011;9030;50.792;8.320;2022-07-23T08:03:17;10.07;;;7.65;;
17812;SDS011;9030;50.792;8.320;2022-07-23T08:05:44;12.80;;;8.30;;
17812;SDS011;9030;50.792;8.320;2022-07-23T08:08:10;11.80;;;6.40;;
17812;SDS011;9030;50.792;8.320;2022-07-23T08:10:39;12.73;;;9.75;;
17812;SDS011;9030;50.792;8.320;2022-07-23T08:13:07;11.30;;;8.40;;
17812;SDS011;9030;50.792;8.320;2022-07-23T08:15:35;15.00;;;7.90;;
17812;SDS011;9030;50.792;8.320;2022-07-23T08:18:01;12.55;;;8.38;;
17812;SDS011;9030;50.792;8.320;2022-07-23T08:20:28;12.35;;;8.73;;
17812;SDS011;9030;50.792;8.320;2022-07-23T08:22:55;12.43;;;8.35;;
17812;SDS011;9030;50.792;8.320;2022-07-23T08:25:25;16.15;;;8.98;;
17812;SDS011;9030;50.792;8.320;2022-07-23T08:27:53;11.27;;;9.48;;
17812;SDS011;9030;50.792;8.320;2022-07-23T08:30:20;14.75;;;8.98;;
17812;SDS011;9030;50.792;8.320;2022-07-23T08:32:50;11.43;;;8.43;;
17812;SDS011;9030;50.792;8.320;2022-07-23T08:35:20;11.13;;;7.18;;
17812;SDS011;9030;50.792;8.320;2022-07-23T08:37:50;12.73;;;8.82;;
17812;SDS011;9030;50.792;8.320;2022-07-23T08:40:17;10.95;;;7.45;;
17812;SDS011;9030;50.792;8.320;2022-07-23T08:42:46;13.05;;;9.15;;
17812;SDS011;9030;50.792;8.320;2022-07-23T08:45:16;11.23;;;8.15;;
17812;SDS011;9030;50.792;8.320;2022-07-23T08:47:48;16.73;;;9.45;;
17812;SDS011;9030;50.792;8.320;2022-07-23T08:50:18;12.50;;;8.73;;
17812;SDS011;9030;50.792;8.320;2022-07-23T08:52:45;12.32;;;8.20;;
17812;SDS011;9030;50.792;8.320;2022-07-23T08:55:14;18.02;;;9.95;;
17812;SDS011;9030;50.792;8.320;2022-07-23T08:57:44;11.55;;;9.00;;
17812;SDS011;9030;50.792;8.320;2022-07-23T09:00:12;12.80;;;7.72;;
17812;SDS011;9030;50.792;8.320;2022-07-23T09:02:42;11.25;;;8.25;;
17812;SDS011;9030;50.792;8.320;2022-07-23T09:05:11;13.27;;;8.65;;
17812;SDS011;9030;50.792;8.320;2022-07-23T09:10:42;11.68;;;7.90;;
17812;SDS011;9030;50.792;8.320;2022-07-23T09:13:22;10.75;;;7.57;;
17812;SDS011;9030;50.792;8.320;2022-07-23T09:15:52;9.45;;;7.70;;
17812;SDS011;9030;50.792;8.320;2022-07-23T09:18:27;15.40;;;8.55;;
17812;SDS011;9030;50.792;8.320;2022-07-23T09:21:10;12.73;;;8.52;;
17812;SDS011;9030;50.792;8.320;2022-07-23T09:23:42;15.57;;;8.80;;
17812;SDS011;9030;50.792;8.320;2022-07-23T09:26:16;14.25;;;8.85;;
17812;SDS011;9030;50.792;8.320;2022-07-23T09:28:51;10.43;;;7.88;;
17812;SDS011;9030;50.792;8.320;2022-07-23T09:31:20;13.88;;;8.68;;
17812;SDS011;9030;50.792;8.320;2022-07-23T09:33:47;11.93;;;8.25;;
17812;SDS011;9030;50.792;8.320;2022-07-23T09:36:15;11.68;;;8.10;;
17812;SDS011;9030;50.792;8.320;2022-07-23T09:38:52;10.77;;;7.78;;
17812;SDS011;9030;50.792;8.320;2022-07-23T09:41:19;11.07;;;7.75;;
17812;SDS011;9030;50.792;8.320;2022-07-23T09:43:46;11.07;;;7.90;;
17812;SDS011;9030;50.792;8.320;2022-07-23T09:46:16;10.82;;;8.27;;
17812;SDS011;9030;50.792;8.320;2022-07-23T09:48:44;14.57;;;8.18;;
17812;SDS011;9030;50.792;8.320;2022-07-23T09:51:11;10.45;;;6.13;;
17812;SDS011;9030;50.792;8.320;2022-07-23T09:53:39;10.85;;;7.30;;
17812;SDS011;9030;50.792;8.320;2022-07-23T09:56:06;9.32;;;5.15;;
17812;SDS011;9030;50.792;8.320;2022-07-23T09:58:34;9.23;;;7.15;;
17812;SDS011;9030;50.792;8.320;2022-07-23T10:01:10;9.07;;;5.97;;
17812;SDS011;9030;50.792;8.320;2022-07-23T10:03:38;9.98;;;5.28;;
17812;SDS011;9030;50.792;8.320;2022-07-23T10:06:07;7.75;;;4.88;;
17812;SDS011;9030;50.792;8.320;2022-07-23T10:08:34;8.25;;;5.28;;
17812;SDS011;9030;50.792;8.320;2022-07-23T10:11:03;6.88;;;4.97;;
17812;SDS011;9030;50.792;8.320;2022-07-23T10:13:30;6.70;;;3.88;;
17812;SDS011;9030;50.792;8.320;2022-07-23T10:16:20;6.80;;;4.10;;
17812;SDS011;9030;50.792;8.320;2022-07-23T10:18:47;5.70;;;4.35;;
17812;SDS011;9030;50.792;8.320;2022-07-23T10:21:16;7.88;;;4.50;;
17812;SDS011;9030;50.792;8.320;2022-07-23T10:23:51;6.45;;;3.95;;
17812;SDS011;9030;50.792;8.320;2022-07-23T10:26:32;4.25;;;3.45;;
17812;SDS011;9030;50.792;8.320;2022-07-23T10:29:07;9.50;;;4.20;;
17812;SDS011;9030;50.792;8.320;2022-07-23T10:31:50;5.72;;;3.28;;
17812;SDS011;9030;50.792;8.320;2022-07-23T10:34:25;6.15;;;4.05;;
17812;SDS011;9030;50.792;8.320;2022-07-23T10:37:04;7.18;;;3.92;;
17812;SDS011;9030;50.792;8.320;2022-07-23T10:39:38;7.53;;;3.90;;
17812;SDS011;9030;50.792;8.320;2022-07-23T10:42:10;6.78;;;3.70;;
17812;SDS011;9030;50.792;8.320;2022-07-23T10:44:39;6.18;;;3.92;;
17812;SDS011;9030;50.792;8.320;2022-07-23T10:47:07;6.45;;;4.70;;
17812;SDS011;9030;50.792;8.320;2022-07-23T10:55:40;6.25;;;4.18;;
17812;SDS011;9030;50.792;8.320;2022-07-23T10:58:10;8.90;;;4.18;;
17812;SDS011;9030;50.792;8.320;2022-07-23T11:00:42;5.57;;;4.30;;
17812;SDS011;9030;50.792;8.320;2022-07-23T11:05:57;19.65;;;5.45;;
17812;SDS011;9030;50.792;8.320;2022-07-23T11:08:24;14.57;;;6.57;;
17812;SDS011;9030;50.792;8.320;2022-07-23T11:10:54;7.28;;;4.35;;
17812;SDS011;9030;50.792;8.320;2022-07-23T11:13:45;216.40;;;42.15;;
17812;SDS011;9030;50.792;8.320;2022-07-23T11:16:20;157.80;;;32.40;;
17812;SDS011;9030;50.792;8.320;2022-07-23T11:21:40;15.00;;;5.43;;
17812;SDS011;9030;50.792;8.320;2022-07-23T11:24:25;13.07;;;5.40;;
17812;SDS011;9030;50.792;8.320;2022-07-23T11:26:59;6.40;;;3.95;;
17812;SDS011;9030;50.792;8.320;2022-07-23T11:29:46;6.53;;;4.32;;
17812;SDS011;9030;50.792;8.320;2022-07-23T11:32:18;9.88;;;4.65;;
17812;SDS011;9030;50.792;8.320;2022-07-23T11:34:49;11.10;;;5.85;;
17812;SDS011;9030;50.792;8.320;2022-07-23T11:40:11;8.93;;;4.03;;
17812;SDS011;9030;50.792;8.320;2022-07-23T11:42:38;7.90;;;4.30;;
17812;SDS011;9030;50.792;8.320;2022-07-23T11:45:08;8.93;;;4.68;;
17812;SDS011;9030;50.792;8.320;2022-07-23T11:47:35;10.30;;;6.40;;
17812;SDS011;9030;50.792;8.320;2022-07-23T11:50:03;9.50;;;4.50;;
17812;SDS011;9030;50.792;8.320;2022-07-23T11:52:32;7.90;;;4.30;;
17812;SDS011;9030;50.792;8.320;2022-07-23T11:54:59;10.20;;;4.35;;
17812;SDS011;9030;50.792;8.320;2022-07-23T11:57:28;11.50;;;4.65;;
17812;SDS011;9030;50.792;8.320;2022-07-23T11:59:57;7.57;;;4.38;;
17812;SDS011;9030;50.792;8.320;2022-07-23T12:02:27;6.45;;;4.22;;
17812;SDS011;9030;50.792;8.320;2022-07-23T12:04:54;8.45;;;4.78;;
17812;SDS011;9030;50.792;8.320;2022-07-23T12:07:25;8.45;;;4.47;;
17812;SDS011;9030;50.792;8.320;2022-07-23T12:09:52;11.07;;;4.57;;
17812;SDS011;9030;50.792;8.320;2022-07-23T12:12:19;9.02;;;4.70;;
17812;SDS011;9030;50.792;8.320;2022-07-23T12:14:48;9.07;;;4.82;;
17812;SDS011;9030;50.792;8.320;2022-07-23T12:17:15;6.70;;;4.15;;
17812;SDS011;9030;50.792;8.320;2022-07-23T12:19:43;11.90;;;5.38;;
17812;SDS011;9030;50.792;8.320;2022-07-23T12:22:11;6.55;;;3.92;;
17812;SDS011;9030;50.792;8.320;2022-07-23T12:24:58;7.82;;;4.00;;
17812;SDS011;9030;50.792;8.320;2022-07-23T12:27:26;9.18;;;5.18;;
17812;SDS011;9030;50.792;8.320;2022-07-23T12:29:53;7.82;;;4.78;;
17812;SDS011;9030;50.792;8.320;2022-07-23T12:32:21;9.75;;;4.93;;
17812;SDS011;9030;50.792;8.320;2022-07-23T12:35:00;9.10;;;4.72;;
17812;SDS011;9030;50.792;8.320;2022-07-23T12:37:30;8.75;;;5.28;;
17812;SDS011;9030;50.792;8.320;2022-07-23T12:39:57;7.10;;;4.40;;
17812;SDS011;9030;50.792;8.320;2022-07-23T12:42:24;5.90;;;4.47;;
17812;SDS011;9030;50.792;8.320;2022-07-23T12:45:07;11.20;;;5.00;;
17812;SDS011;9030;50.792;8.320;2022-07-23T12:47:55;7.68;;;4.47;;
17812;SDS011;9030;50.792;8.320;2022-07-23T12:50:40;7.80;;;4.68;;
17812;SDS011;9030;50.792;8.320;2022-07-23T12:53:15;8.75;;;4.63;;
17812;SDS011;9030;50.792;8.320;2022-07-23T12:55:44;7.50;;;4.85;;
17812;SDS011;9030;50.792;8.320;2022-07-23T12:58:12;7.30;;;5.20;;
17812;SDS011;9030;50.792;8.320;2022-07-23T13:00:55;9.40;;;5.32;;
17812;SDS011;9030;50.792;8.320;2022-07-23T13:03:25;7.18;;;4.68;;
17812;SDS011;9030;50.792;8.320;2022-07-23T13:05:55;8.43;;;4.53;;
17812;SDS011;9030;50.792;8.320;2022-07-23T13:08:22;6.93;;;4.32;;
17812;SDS011;9030;50.792;8.320;2022-07-23T13:10:51;8.63;;;5.03;;
17812;SDS011;9030;50.792;8.320;2022-07-23T13:13:20;5.82;;;4.88;;
17812;SDS011;9030;50.792;8.320;2022-07-23T13:15:47;9.95;;;5.40;;
17812;SDS011;9030;50.792;8.320;2022-07-23T13:18:14;7.55;;;4.70;;
17812;SDS011;9030;50.792;8.320;2022-07-23T13:20:42;7.82;;;4.32;;
17812;SDS011;9030;50.792;8.320;2022-07-23T13:23:10;9.77;;;4.85;;
17812;SDS011;9030;50.792;8.320;2022-07-23T13:25:37;7.22;;;4.38;;
17812;SDS011;9030;50.792;8.320;2022-07-23T13:28:04;6.78;;;4.47;;
17812;SDS011;9030;50.792;8.320;2022-07-23T13:30:31;7.35;;;4.40;;
17812;SDS011;9030;50.792;8.320;2022-07-23T13:32:58;9.75;;;5.82;;
17812;SDS011;9030;50.792;8.320;2022-07-23T13:35:25;9.35;;;4.85;;
17812;SDS011;9030;50.792;8.320;2022-07-23T13:37:52;8.05;;;4.60;;
17812;SDS011;9030;50.792;8.320;2022-07-23T13:40:20;7.50;;;4.63;;
17812;SDS011;9030;50.792;8.320;2022-07-23T13:42:47;7.95;;;4.93;;
17812;SDS011;9030;50.792;8.320;2022-07-23T13:45:14;7.65;;;4.10;;
17812;SDS011;9030;50.792;8.320;2022-07-23T13:47:40;9.98;;;5.05;;
17812;SDS011;9030;50.792;8.320;2022-07-23T13:50:07;6.90;;;4.78;;
17812;SDS011;9030;50.792;8.320;2022-07-23T13:52:34;7.30;;;4.70;;
17812;SDS011;9030;50.792;8.320;2022-07-23T13:55:01;7.13;;;4.57;;
17812;SDS011;9030;50.792;8.320;2022-07-23T13:57:31;10.18;;;5.75;;
17812;SDS011;9030;50.792;8.320;2022-07-23T13:59:59;7.50;;;4.78;;
17812;SDS011;9030;50.792;8.320;2022-07-23T14:02:27;8.23;;;4.90;;
17812;SDS011;9030;50.792;8.320;2022-07-23T14:04:53;8.38;;;4.03;;
17812;SDS011;9030;50.792;8.320;2022-07-23T14:07:20;9.40;;;4.65;;
17812;SDS011;9030;50.792;8.320;2022-07-23T14:09:47;8.63;;;6.30;;
17812;SDS011;9030;50.792;8.320;2022-07-23T14:12:14;10.82;;;5.43;;
17812;SDS011;9030;50.792;8.320;2022-07-23T14:14:42;6.85;;;4.18;;
17812;SDS011;9030;50.792;8.320;2022-07-23T14:17:09;8.50;;;5.57;;
17812;SDS011;9030;50.792;8.320;2022-07-23T14:19:36;12.23;;;5.50;;
17812;SDS011;9030;50.792;8.320;2022-07-23T14:22:02;5.97;;;3.88;;
17812;SDS011;9030;50.792;8.320;2022-07-23T14:24:29;8.70;;;5.80;;
17812;SDS011;9030;50.792;8.320;2022-07-23T14:26:56;8.73;;;5.25;;
17812;SDS011;9030;50.792;8.320;2022-07-23T14:29:23;12.80;;;5.53;;
17812;SDS011;9030;50.792;8.320;2022-07-23T14:31:51;9.02;;;4.90;;
17812;SDS011;9030;50.792;8.320;2022-07-23T14:34:18;8.50;;;4.40;;
17812;SDS011;9030;50.792;8.320;2022-07-23T14:36:45;9.43;;;5.75;;
17812;SDS011;9030;50.792;8.320;2022-07-23T14:39:11;12.45;;;5.03;;
17812;SDS011;9030;50.792;8.320;2022-07-23T14:41:38;6.15;;;4.63;;
17812;SDS011;9030;50.792;8.320;2022-07-23T14:44:05;8.77;;;5.05;;
17812;SDS011;9030;50.792;8.320;2022-07-23T14:46:31;9.77;;;5.55;;
17812;SDS011;9030;50.792;8.320;2022-07-23T14:49:00;6.47;;;4.53;;
17812;SDS011;9030;50.792;8.320;2022-07-23T14:51:26;7.57;;;5.25;;
17812;SDS011;9030;50.792;8.320;2022-07-23T14:53:53;9.32;;;6.07;;
17812;SDS011;9030;50.792;8.320;2022-07-23T14:56:20;12.40;;;6.18;;
17812;SDS011;9030;50.792;8.320;2022-07-23T14:58:47;14.50;;;5.63;;
17812;SDS011;9030;50.792;8.320;2022-07-23T15:01:14;8.10;;;4.80;;
17812;SDS011;9030;50.792;8.320;2022-07-23T15:03:40;7.47;;;5.68;;
17812;SDS011;9030;50.792;8.320;2022-07-23T15:06:08;10.30;;;5.82;;
17812;SDS011;9030;50.792;8.320;2022-07-23T15:08:36;6.45;;;5.00;;
17812;SDS011;9030;50.792;8.320;2022-07-23T15:11:02;10.70;;;5.82;;